Time;durP1;ratioP1;P1;durP2;ratioP2;P2;SDS_P1;SDS_P2;PMS_P1;PMS_P2;Temp;Humidity;BMP_temperature;BMP_pressure;BME280_temperature;BME280_humidity;BME280_pressure;Samples;Min_cycle;Max_cycle;Signal;HPM_P1;HPM_P2
2022/12/03 00:03:52;;;;;;;;;;;0.90;99.90;;;;;;12335971;28;19926;-39
2022/12/03 00:09:54;;;;;;;;;;;0.90;99.90;;;;;;12334026;28;19930;-38
2022/12/03 00:15:56;;;;;;;;;;;0.90;99.90;;;;;;12338331;28;19949;-38
2022/12/03 00:21:57;;;;;;;;;;;0.90;99.90;;;;;;12338699;28;19926;-38
2022/12/03 00:27:59;;;;;;;;;;;0.90;99.90;;;;;;12333593;28;19926;-38
2022/12/03 00:34:01;;;;;;;;;;;0.80;99.90;;;;;;12337041;28;19938;-38
2022/12/03 00:40:03;;;;;;;;;;;0.80;99.90;;;;;;12333382;28;19937;-38
2022/12/03 00:46:05;;;;;;;;;;;0.80;99.90;;;;;;12334418;28;19935;-39
2022/12/03 00:52:07;;;;;;;;;;;0.70;99.90;;;;;;12340214;28;19980;-38
2022/12/03 00:58:09;;;;;;;;;;;0.80;99.90;;;;;;12334057;28;19930;-38
2022/12/03 01:04:10;;;;;;;;;;;0.80;99.90;;;;;;12338247;28;19953;-38
2022/12/03 01:10:12;;;;;;;;;;;0.80;99.90;;;;;;12332994;28;19926;-38
2022/12/03 01:16:14;;;;;;;;;;;0.70;99.90;;;;;;12335902;28;20397;-38
2022/12/03 01:22:16;;;;;;;;;;;0.80;99.90;;;;;;12336940;28;19930;-38
2022/12/03 01:28:17;;;;;;;;;;;0.80;99.90;;;;;;12328801;28;19933;-38
2022/12/03 01:34:19;;;;;;;;;;;0.80;99.90;;;;;;12332491;28;19926;-39
2022/12/03 01:40:21;;;;;;;;;;;0.80;99.90;;;;;;12321951;28;19930;-38
2022/12/03 01:46:25;;;;;;;;;;;0.80;99.90;;;;;;12331280;28;20417;-38
2022/12/03 01:52:29;;;;;;;;;;;0.70;99.90;;;;;;12334064;28;19989;-38
2022/12/03 01:58:30;;;;;;;;;;;0.70;99.90;;;;;;12334025;28;19942;-39
2022/12/03 02:04:32;;;;;;;;;;;0.80;99.90;;;;;;12339643;28;19930;-38
2022/12/03 02:10:36;;;;;;;;;;;0.80;99.90;;;;;;12342314;28;19933;-38
2022/12/03 02:16:39;;;;;;;;;;;0.70;99.90;;;;;;12339906;28;19937;-38
2022/12/03 02:22:45;;;;;;;;;;;0.70;99.90;;;;;;12338107;28;19934;-38
2022/12/03 02:28:47;;;;;;;;;;;0.60;99.90;;;;;;12347704;28;19926;-38
2022/12/03 02:34:49;;;;;;;;;;;0.70;99.90;;;;;;12351556;28;19926;-38
2022/12/03 02:40:52;;;;;;;;;;;0.60;99.90;;;;;;12339541;28;19961;-37
2022/12/03 02:46:54;;;;;;;;;;;0.60;99.90;;;;;;12340789;28;19930;-38
2022/12/03 02:52:57;;;;;;;;;;;0.60;99.90;;;;;;12345669;28;19932;-39
2022/12/03 02:59:00;;;;;;;;;;;0.50;99.90;;;;;;12346212;28;20000;-38
2022/12/03 03:05:03;;;;;;;;;;;0.50;99.90;;;;;;12343259;28;20433;-38
2022/12/03 03:11:05;;;;;;;;;;;0.40;99.90;;;;;;12321054;28;19976;-38
2022/12/03 03:17:07;;;;;;;;;;;0.50;99.90;;;;;;12346846;28;19930;-38
2022/12/03 03:23:16;;;;;;;;;;;0.30;99.90;;;;;;12333727;28;20297;-38
2022/12/03 03:29:18;;;;;;;;;;;0.40;99.90;;;;;;12344932;28;20597;-38
2022/12/03 03:35:20;;;;;;;;;;;0.40;99.90;;;;;;12348185;28;19934;-38
2022/12/03 03:41:23;;;;;;;;;;;0.40;99.90;;;;;;12345377;28;19990;-38
2022/12/03 03:47:25;;;;;;;;;;;0.30;99.90;;;;;;12341716;28;20401;-38
2022/12/03 03:53:26;;;;;;;;;;;0.40;99.90;;;;;;12342170;28;19937;-38
2022/12/03 03:59:28;;;;;;;;;;;0.50;99.90;;;;;;12340702;28;19930;-38
2022/12/03 04:05:30;;;;;;;;;;;0.40;99.90;;;;;;12342098;28;19941;-38
2022/12/03 04:24:12;;;;;;;;;;;0.20;99.90;;;;;;12344247;28;19934;-38
2022/12/03 04:30:14;;;;;;;;;;;0.20;99.90;;;;;;12340908;28;20031;-38
2022/12/03 04:36:15;;;;;;;;;;;0.10;99.90;;;;;;12343445;28;19949;-38
2022/12/03 04:42:17;;;;;;;;;;;0.10;99.90;;;;;;12338849;28;20033;-38
2022/12/03 04:48:19;;;;;;;;;;;0.10;99.90;;;;;;12340485;28;19933;-38
2022/12/03 04:54:20;;;;;;;;;;;0.00;99.90;;;;;;12340156;28;19930;-38
2022/12/03 05:00:22;;;;;;;;;;;0.00;99.90;;;;;;12342021;28;19934;-38
2022/12/03 05:06:24;;;;;;;;;;;-0.10;99.90;;;;;;12336194;28;19949;-38
2022/12/03 05:12:26;;;;;;;;;;;-0.10;99.90;;;;;;12340032;28;19930;-38
2022/12/03 05:18:28;;;;;;;;;;;0.00;99.90;;;;;;12326753;28;19980;-38
2022/12/03 05:24:29;;;;;;;;;;;0.10;99.90;;;;;;12333932;28;20298;-38
2022/12/03 05:30:31;;;;;;;;;;;0.00;99.90;;;;;;12338776;28;19940;-38
2022/12/03 05:36:33;;;;;;;;;;;0.10;99.90;;;;;;12338290;28;20379;-38
2022/12/03 05:42:53;;;;;;;;;;;0.00;99.90;;;;;;12337898;28;19930;-38
2022/12/03 05:48:54;;;;;;;;;;;0.10;99.90;;;;;;12336485;28;19953;-38
2022/12/03 05:54:56;;;;;;;;;;;0.10;99.90;;;;;;12336799;28;19926;-38
2022/12/03 06:00:58;;;;;;;;;;;0.10;99.90;;;;;;12345505;28;19926;-39
2022/12/03 06:06:59;;;;;;;;;;;0.20;99.90;;;;;;12345004;28;20398;-38
2022/12/03 06:13:02;;;;;;;;;;;0.20;99.90;;;;;;12343604;28;19934;-38
2022/12/03 06:19:04;;;;;;;;;;;0.10;99.90;;;;;;12344316;28;20016;-38
2022/12/03 06:25:05;;;;;;;;;;;0.00;99.90;;;;;;12346959;28;20049;-38
2022/12/03 06:31:08;;;;;;;;;;;0.00;99.90;;;;;;12342029;28;20028;-38
2022/12/03 06:37:10;;;;;;;;;;;0.10;99.90;;;;;;12350289;28;19977;-38
2022/12/03 06:43:11;;;;;;;;;;;0.20;99.90;;;;;;12335881;28;20406;-37
2022/12/03 06:49:13;;;;;;;;;;;0.10;99.90;;;;;;12344377;28;20367;-38
2022/12/03 06:55:15;;;;;;;;;;;0.00;99.90;;;;;;12337439;28;20017;-38
2022/12/03 07:01:16;;;;;;;;;;;0.10;99.90;;;;;;12352100;28;19988;-38
2022/12/03 07:07:18;;;;;;;;;;;0.10;99.90;;;;;;12339575;28;19934;-38
2022/12/03 07:13:20;;;;;;;;;;;0.00;99.90;;;;;;12349600;28;20004;-38
2022/12/03 07:19:22;;;;;;;;;;;0.10;99.90;;;;;;12346525;28;20406;-38
2022/12/03 07:25:32;;;;;;;;;;;0.10;99.90;;;;;;12341063;28;19930;-38
2022/12/03 07:31:34;;;;;;;;;;;0.00;99.90;;;;;;12336739;28;19933;-38
2022/12/03 07:37:36;;;;;;;;;;;0.00;99.90;;;;;;12346367;28;19933;-38
2022/12/03 07:43:37;;;;;;;;;;;-0.10;99.90;;;;;;12333619;28;19937;-39
2022/12/03 07:49:39;;;;;;;;;;;0.00;99.90;;;;;;12341511;28;19930;-38
2022/12/03 07:55:41;;;;;;;;;;;0.00;99.90;;;;;;12339912;28;19927;-38
2022/12/03 08:01:43;;;;;;;;;;;0.00;99.90;;;;;;12351534;28;19934;-38
2022/12/03 08:07:45;;;;;;;;;;;0.00;99.90;;;;;;12341526;28;19926;-38
2022/12/03 08:13:46;;;;;;;;;;;0.00;99.90;;;;;;12336593;28;20415;-39
2022/12/03 08:19:48;;;;;;;;;;;0.00;99.90;;;;;;12338695;28;19933;-38
2022/12/03 08:25:50;;;;;;;;;;;-0.10;99.90;;;;;;12332938;28;19933;-38
2022/12/03 08:31:55;;;;;;;;;;;0.00;99.90;;;;;;12339242;28;19976;-38
2022/12/03 08:38:04;;;;;;;;;;;0.00;99.90;;;;;;12336102;28;20025;-38
2022/12/03 08:44:10;;;;;;;;;;;0.20;99.90;;;;;;12331331;28;19926;-38
2022/12/03 08:50:26;;;;;;;;;;;0.10;99.90;;;;;;12339733;28;19934;-39
2022/12/03 08:56:29;;;;;;;;;;;0.00;99.90;;;;;;12341774;28;19926;-38
2022/12/03 09:02:32;;;;;;;;;;;0.10;99.90;;;;;;12340713;28;20024;-38
2022/12/03 09:08:33;;;;;;;;;;;0.20;99.90;;;;;;12336803;28;19926;-38
2022/12/03 09:14:51;;;;;;;;;;;0.20;99.90;;;;;;12304626;28;20980;-38
2022/12/03 09:20:53;;;;;;;;;;;0.10;99.90;;;;;;12341378;28;20023;-39
2022/12/03 09:26:55;;;;;;;;;;;0.10;99.90;;;;;;12340060;28;19960;-38
2022/12/03 09:32:58;;;;;;;;;;;0.00;99.90;;;;;;12337987;28;19932;-38
2022/12/03 09:39:00;;;;;;;;;;;0.00;99.90;;;;;;12338530;28;19934;-38
2022/12/03 09:45:04;;;;;;;;;;;0.00;99.90;;;;;;12332815;28;19953;-38
2022/12/03 09:51:06;;;;;;;;;;;0.10;99.90;;;;;;12333753;28;20386;-38
2022/12/03 09:57:08;;;;;;;;;;;0.00;99.90;;;;;;12334254;28;19935;-38
2022/12/03 10:03:11;;;;;;;;;;;0.00;99.90;;;;;;12335952;28;20375;-38
2022/12/03 10:09:16;;;;;;;;;;;0.00;99.90;;;;;;12340219;28;19965;-38
2022/12/03 10:15:20;;;;;;;;;;;0.10;99.90;;;;;;12335826;28;19997;-38
2022/12/03 10:21:22;;;;;;;;;;;0.20;99.90;;;;;;12338555;28;20306;-38
2022/12/03 10:27:28;;;;;;;;;;;0.30;99.90;;;;;;12333827;28;19970;-38
2022/12/03 10:33:38;;;;;;;;;;;0.30;99.90;;;;;;12341168;28;20028;-40
2022/12/03 10:39:51;;;;;;;;;;;0.50;99.90;;;;;;12340474;28;19926;-38
2022/12/03 10:46:02;;;;;;;;;;;0.50;99.90;;;;;;12335104;28;19934;-38
2022/12/03 10:52:20;;;;;;;;;;;0.60;99.90;;;;;;12338088;28;19926;-38
2022/12/03 10:58:44;;;;;;;;;;;0.50;99.90;;;;;;12352680;28;19969;-38
2022/12/03 11:04:46;;;;;;;;;;;0.60;99.90;;;;;;12339021;28;20301;-38
2022/12/03 11:10:55;;;;;;;;;;;0.60;99.90;;;;;;12344252;28;19926;-38
2022/12/03 11:16:57;;;;;;;;;;;0.60;99.90;;;;;;12333642;28;20428;-38
2022/12/03 11:22:59;;;;;;;;;;;0.50;99.90;;;;;;12343359;28;19927;-39
2022/12/03 11:29:00;;;;;;;;;;;0.50;99.90;;;;;;12333317;28;19927;-38
2022/12/03 11:35:23;;;;;;;;;;;0.60;99.90;;;;;;12341481;28;19930;-39
2022/12/03 11:41:29;;;;;;;;;;;0.50;99.90;;;;;;12331478;28;20382;-39
2022/12/03 11:47:32;;;;;;;;;;;0.50;99.90;;;;;;12344405;28;19926;-38
2022/12/03 11:53:34;;;;;;;;;;;0.50;99.90;;;;;;12341298;28;20282;-39
2022/12/03 11:59:54;;;;;;;;;;;0.40;99.90;;;;;;12342916;28;20308;-39
2022/12/03 12:06:00;;;;;;;;;;;0.40;99.90;;;;;;12339416;28;20002;-41
2022/12/03 12:12:18;;;;;;;;;;;0.50;99.90;;;;;;12333469;28;19936;-39
2022/12/03 12:18:39;;;;;;;;;;;0.30;99.90;;;;;;12339128;28;19934;-40
2022/12/03 12:24:42;;;;;;;;;;;0.30;99.90;;;;;;12340471;28;19926;-39
2022/12/03 12:30:44;;;;;;;;;;;0.40;99.90;;;;;;12342756;28;19980;-39
2022/12/03 12:36:45;;;;;;;;;;;0.50;99.90;;;;;;12347191;28;19933;-39
2022/12/03 12:42:50;;;;;;;;;;;0.50;99.90;;;;;;12339865;28;19926;-39
2022/12/03 12:48:51;;;;;;;;;;;0.80;99.90;;;;;;12342197;28;19926;-39
2022/12/03 12:55:00;;;;;;;;;;;0.60;99.90;;;;;;12341697;28;19926;-39
2022/12/03 13:01:10;;;;;;;;;;;0.60;99.90;;;;;;12336291;28;19937;-39
2022/12/03 13:07:12;;;;;;;;;;;0.60;99.90;;;;;;12336319;28;19973;-39
2022/12/03 13:13:18;;;;;;;;;;;0.60;99.90;;;;;;12325287;28;20357;-39
2022/12/03 13:19:28;;;;;;;;;;;0.40;99.90;;;;;;12339832;28;20787;-39
2022/12/03 13:25:32;;;;;;;;;;;0.30;99.90;;;;;;12328100;28;19937;-39
2022/12/03 13:31:55;;;;;;;;;;;0.20;99.90;;;;;;12332969;28;19941;-39
2022/12/03 13:37:57;;;;;;;;;;;0.20;99.90;;;;;;12342097;28;19934;-38
2022/12/03 13:43:59;;;;;;;;;;;0.10;99.90;;;;;;12335728;28;19937;-38
2022/12/03 13:50:04;;;;;;;;;;;0.10;99.90;;;;;;12340456;28;19926;-39
2022/12/03 13:56:21;;;;;;;;;;;0.10;99.90;;;;;;12334680;28;19933;-38
2022/12/03 14:02:22;;;;;;;;;;;0.10;99.90;;;;;;12338271;28;19938;-38
2022/12/03 14:08:24;;;;;;;;;;;0.20;99.90;;;;;;12338424;28;19930;-38
2022/12/03 14:14:26;;;;;;;;;;;0.20;99.90;;;;;;12331571;28;19980;-38
2022/12/03 14:20:27;;;;;;;;;;;0.20;99.90;;;;;;12342989;28;20424;-38
2022/12/03 14:26:29;;;;;;;;;;;0.20;99.90;;;;;;12336825;28;19927;-38
2022/12/03 14:32:31;;;;;;;;;;;0.10;99.90;;;;;;12342027;28;19934;-39
2022/12/03 14:38:33;;;;;;;;;;;0.10;99.90;;;;;;12353085;28;19958;-39
2022/12/03 14:44:34;;;;;;;;;;;0.00;99.90;;;;;;12341983;28;19930;-38
2022/12/03 14:50:36;;;;;;;;;;;0.00;99.90;;;;;;12343859;28;19926;-39
2022/12/03 14:56:38;;;;;;;;;;;0.10;99.90;;;;;;12346683;28;19952;-38
2022/12/03 15:02:39;;;;;;;;;;;-0.10;99.90;;;;;;12344725;28;19938;-38
2022/12/03 15:08:41;;;;;;;;;;;0.00;99.90;;;;;;12344391;28;21377;-38
2022/12/03 15:14:43;;;;;;;;;;;0.10;99.90;;;;;;12343718;28;19934;-39
2022/12/03 15:20:45;;;;;;;;;;;0.10;99.90;;;;;;12326354;28;19941;-39
2022/12/03 15:26:46;;;;;;;;;;;0.10;99.90;;;;;;12344761;28;19934;-38
2022/12/03 15:32:48;;;;;;;;;;;0.10;99.90;;;;;;12342182;28;19976;-38
2022/12/03 15:38:50;;;;;;;;;;;0.10;99.90;;;;;;12341800;28;19926;-38
2022/12/03 15:44:51;;;;;;;;;;;0.10;99.90;;;;;;12324659;28;19933;-39
2022/12/03 15:50:53;;;;;;;;;;;0.00;99.90;;;;;;12344643;28;19933;-39
2022/12/03 15:56:55;;;;;;;;;;;0.00;99.90;;;;;;12343790;28;19953;-39
2022/12/03 16:02:58;;;;;;;;;;;0.10;99.90;;;;;;12340840;28;19933;-39
2022/12/03 16:09:00;;;;;;;;;;;0.10;99.90;;;;;;12325445;28;19926;-39
2022/12/03 16:15:01;;;;;;;;;;;0.00;99.90;;;;;;12338360;28;20066;-39
2022/12/03 16:21:03;;;;;;;;;;;-0.10;99.90;;;;;;12341837;28;19965;-38
2022/12/03 16:27:05;;;;;;;;;;;-0.10;99.90;;;;;;12344153;28;20024;-38
2022/12/03 16:33:07;;;;;;;;;;;-0.10;99.90;;;;;;12336379;28;19941;-38
2022/12/03 16:39:08;;;;;;;;;;;0.10;99.90;;;;;;12343949;28;19942;-39
2022/12/03 16:45:21;;;;;;;;;;;0.00;99.90;;;;;;12338308;28;19930;-39
2022/12/03 16:51:24;;;;;;;;;;;-0.10;99.90;;;;;;12352587;28;19937;-39
2022/12/03 16:57:26;;;;;;;;;;;-0.10;99.90;;;;;;12341677;28;19937;-38
2022/12/03 17:03:34;;;;;;;;;;;-0.10;99.90;;;;;;12340263;28;20394;-39
2022/12/03 17:09:36;;;;;;;;;;;-0.10;99.90;;;;;;12334135;28;19926;-39
2022/12/03 17:15:38;;;;;;;;;;;-0.20;99.90;;;;;;12337796;28;19934;-38
2022/12/03 17:21:40;;;;;;;;;;;-0.10;99.90;;;;;;12338854;28;19966;-39
2022/12/03 17:27:42;;;;;;;;;;;-0.20;99.90;;;;;;12338447;28;19934;-38
2022/12/03 17:33:46;;;;;;;;;;;-0.20;99.90;;;;;;12338536;28;19933;-39
2022/12/03 17:39:47;;;;;;;;;;;-0.20;99.90;;;;;;12338405;28;19930;-39
2022/12/03 17:45:49;;;;;;;;;;;-0.20;99.90;;;;;;12332093;28;19926;-38
2022/12/03 17:51:51;;;;;;;;;;;-0.10;99.90;;;;;;12337651;28;19926;-38
2022/12/03 17:57:52;;;;;;;;;;;-0.20;99.90;;;;;;12336336;28;19934;-38
2022/12/03 18:03:54;;;;;;;;;;;-0.20;99.90;;;;;;12326691;28;19926;-39
2022/12/03 18:09:56;;;;;;;;;;;-0.20;99.90;;;;;;12306883;28;20012;-39
2022/12/03 18:15:58;;;;;;;;;;;-0.20;99.90;;;;;;12338323;28;19930;-38
2022/12/03 18:22:00;;;;;;;;;;;-0.20;99.90;;;;;;12337568;28;19926;-38
2022/12/03 18:28:02;;;;;;;;;;;-0.20;99.90;;;;;;12333126;28;19926;-38
2022/12/03 18:34:03;;;;;;;;;;;-0.10;99.90;;;;;;12328156;28;19934;-39
2022/12/03 18:40:06;;;;;;;;;;;-0.10;99.90;;;;;;12330325;28;19930;-39
2022/12/03 18:46:14;;;;;;;;;;;-0.10;99.90;;;;;;12291819;28;19965;-38
2022/12/03 18:52:36;;;;;;;;;;;-0.20;99.90;;;;;;12332629;28;19930;-38
2022/12/03 18:58:38;;;;;;;;;;;-0.20;99.90;;;;;;12337018;28;19937;-38
2022/12/03 19:04:39;;;;;;;;;;;-0.20;99.90;;;;;;12336525;28;19926;-39
2022/12/03 19:10:41;;;;;;;;;;;-0.20;99.90;;;;;;12343240;28;19926;-39
2022/12/03 19:16:43;;;;;;;;;;;-0.20;99.90;;;;;;12340883;28;19930;-39
2022/12/03 19:22:45;;;;;;;;;;;-0.20;99.90;;;;;;12344561;28;20072;-39
2022/12/03 19:28:47;;;;;;;;;;;-0.20;99.90;;;;;;12343921;28;19933;-38
2022/12/03 19:34:49;;;;;;;;;;;-0.10;99.90;;;;;;12334666;28;19976;-38
2022/12/03 19:41:09;;;;;;;;;;;-0.10;99.90;;;;;;12343200;28;19934;-38
2022/12/03 19:47:11;;;;;;;;;;;-0.10;99.90;;;;;;12342421;28;19941;-38
2022/12/03 19:53:12;;;;;;;;;;;-0.20;99.90;;;;;;12340391;28;19930;-39
2022/12/03 19:59:14;;;;;;;;;;;-0.10;99.90;;;;;;12338593;28;19926;-39
2022/12/03 20:05:16;;;;;;;;;;;-0.10;99.90;;;;;;12337013;28;19926;-38
2022/12/03 20:11:20;;;;;;;;;;;-0.10;99.90;;;;;;12346825;28;20329;-39
2022/12/03 20:17:22;;;;;;;;;;;-0.10;99.90;;;;;;12341475;28;19926;-39
2022/12/03 20:23:23;;;;;;;;;;;-0.10;99.90;;;;;;12344184;28;19930;-39
2022/12/03 20:29:25;;;;;;;;;;;-0.10;99.90;;;;;;12338224;28;19941;-40
2022/12/03 20:35:27;;;;;;;;;;;0.00;99.90;;;;;;12335128;28;19926;-39
2022/12/03 20:41:28;;;;;;;;;;;-0.10;99.90;;;;;;12340387;28;19930;-38
2022/12/03 20:47:30;;;;;;;;;;;-0.10;99.90;;;;;;12331401;28;20394;-38
2022/12/03 20:53:32;;;;;;;;;;;-0.10;99.90;;;;;;12343033;28;19926;-39
2022/12/03 20:59:34;;;;;;;;;;;-0.10;99.90;;;;;;12337532;28;19937;-39
2022/12/03 21:05:35;;;;;;;;;;;-0.10;99.90;;;;;;12337709;28;19930;-39
2022/12/03 21:11:40;;;;;;;;;;;-0.10;99.90;;;;;;12349626;28;19930;-38
2022/12/03 21:17:41;;;;;;;;;;;-0.20;99.90;;;;;;12335781;28;19930;-39
2022/12/03 21:23:44;;;;;;;;;;;-0.20;99.90;;;;;;12333929;28;19945;-38
2022/12/03 21:29:45;;;;;;;;;;;-0.10;99.90;;;;;;12334763;28;19934;-38
2022/12/03 21:35:47;;;;;;;;;;;-0.20;99.90;;;;;;12333956;28;19933;-39
2022/12/03 21:41:49;;;;;;;;;;;-0.10;99.90;;;;;;12328921;28;19981;-38
2022/12/03 21:48:10;;;;;;;;;;;-0.10;99.90;;;;;;12331566;28;19926;-39
2022/12/03 21:54:12;;;;;;;;;;;-0.10;99.90;;;;;;12322577;28;19933;-39
2022/12/03 22:00:14;;;;;;;;;;;-0.10;99.90;;;;;;12338622;28;20428;-39
2022/12/03 22:06:16;;;;;;;;;;;-0.10;99.90;;;;;;12332782;28;19930;-39
2022/12/03 22:12:18;;;;;;;;;;;-0.10;99.90;;;;;;12339973;28;20354;-39
2022/12/03 22:18:20;;;;;;;;;;;-0.10;99.90;;;;;;12338623;28;19926;-39
2022/12/03 22:24:22;;;;;;;;;;;-0.20;99.90;;;;;;12335220;28;19926;-39
2022/12/03 22:30:24;;;;;;;;;;;-0.10;99.90;;;;;;12335770;28;19933;-38
2022/12/03 22:36:26;;;;;;;;;;;-0.10;99.90;;;;;;12331469;28;20024;-39
2022/12/03 22:42:27;;;;;;;;;;;-0.10;99.90;;;;;;12338980;28;19937;-39
2022/12/03 22:48:29;;;;;;;;;;;-0.10;99.90;;;;;;12343107;28;19933;-39
2022/12/03 22:54:31;;;;;;;;;;;-0.20;99.90;;;;;;12348482;28;20298;-39
2022/12/03 23:00:34;;;;;;;;;;;-0.20;99.90;;;;;;12343659;28;19949;-39
2022/12/03 23:06:37;;;;;;;;;;;-0.20;99.90;;;;;;12346082;28;19937;-39
2022/12/03 23:12:38;;;;;;;;;;;-0.20;99.90;;;;;;12345534;28;19925;-38
2022/12/03 23:18:40;;;;;;;;;;;-0.20;99.90;;;;;;12339641;28;20396;-39
2022/12/03 23:24:42;;;;;;;;;;;-0.20;99.90;;;;;;12335166;28;20306;-39
2022/12/03 23:30:43;;;;;;;;;;;-0.20;99.90;;;;;;12343849;28;19933;-38
2022/12/03 23:36:45;;;;;;;;;;;-0.20;99.90;;;;;;12345948;28;19930;-38
2022/12/03 23:42:47;;;;;;;;;;;-0.20;99.90;;;;;;12341263;28;20504;-39
2022/12/03 23:48:49;;;;;;;;;;;-0.10;99.90;;;;;;12341081;28;19934;-39
2022/12/03 23:54:50;;;;;;;;;;;-0.20;99.90;;;;;;12340369;28;20349;-38
